CYNA

Natashquan Airport

Natashquan, Quebec, Canada
METAR CYNA 191000Z AUTO 03010KT 9SM CLR 01/M01 A3020 RMK SLP228
Observed Flight Rules
Sep-19 @ 10:00 UTC (an hour ago) Visual Flight Rules
Wind Visibility Clouds
30° at 10 knots 9 miles
  • Clear skies
Temperatures Readings
Current 1°C / 34°F
Dewpoint -1°C / 30°F
Humidity 87%
Altimeter 30.2" Hg
Pressure 1022.8 hPa
Elevation 11
METAR CYNA 191000Z AUTO 03010KT 9SM CLR 01/M01 A3020 RMK SLP228
Observed Flight Rules
Sep-19 @ 10:00 UTC
(an hour ago)
VFR
Wind Visibility
30° at 10 knots 9 miles
Clouds
  • Clear skies
Temperature Dewpoint
1°C / 34°F -1°C / 30°F
Humidity Altimeter Pressure
87% 30.2" Hg 1022.8 hPa